createdAt,value
2022-12-25T00:01:38.515Z,100803.47
2022-12-25T00:04:05.128Z,100835.44
2022-12-25T00:06:31.530Z,100790.53
2022-12-25T00:08:57.898Z,100738.91
2022-12-25T00:11:24.310Z,100810.63
2022-12-25T00:13:50.807Z,100783.84
2022-12-25T00:16:19.989Z,100833.13
2022-12-25T00:18:46.773Z,100777.00
2022-12-25T00:21:14.343Z,100837.47
2022-12-25T00:23:41.020Z,100827.06
2022-12-25T00:26:10.746Z,100772.63
2022-12-25T00:28:37.400Z,100820.78
2022-12-25T00:31:08.575Z,100729.38
2022-12-25T00:33:37.009Z,100818.34
2022-12-25T00:36:06.094Z,100810.53
2022-12-25T00:38:34.439Z,100771.72
2022-12-25T00:41:07.795Z,100826.09
2022-12-25T00:43:34.638Z,100812.28
2022-12-25T00:46:03.813Z,100796.69
2022-12-25T00:48:31.187Z,100822.63
2022-12-25T00:51:00.126Z,100852.06
2022-12-25T00:53:27.880Z,100801.91
2022-12-25T00:55:57.140Z,100841.59
2022-12-25T00:58:24.297Z,100843.38
2022-12-25T01:00:51.040Z,100823.47
2022-12-25T01:03:18.607Z,100761.31
2022-12-25T01:05:55.000Z,100738.91
2022-12-25T01:08:21.338Z,100824.31
2022-12-25T01:10:54.738Z,100819.94
2022-12-25T01:13:21.401Z,100790.59
2022-12-25T01:15:47.943Z,100789.63
2022-12-25T01:18:14.371Z,100726.78
2022-12-25T01:20:40.778Z,100769.69
2022-12-25T01:23:07.255Z,100748.09
2022-12-25T01:25:33.652Z,100813.78
2022-12-25T01:28:00.005Z,100798.28
2022-12-25T01:30:26.454Z,100796.41
2022-12-25T01:32:52.780Z,100754.16
2022-12-25T01:35:20.244Z,100729.91
2022-12-25T01:37:46.621Z,100804.94
2022-12-25T01:40:13.191Z,100811.84
2022-12-25T01:42:39.644Z,100794.50
2022-12-25T01:45:40.781Z,100818.56
2022-12-25T01:48:12.974Z,100819.31
2022-12-25T01:50:43.095Z,100805.66
2022-12-25T01:53:09.694Z,100798.69
2022-12-25T01:55:37.689Z,100806.63
2022-12-25T01:58:04.473Z,100820.44
2022-12-25T02:00:31.009Z,100732.28
2022-12-25T02:02:58.232Z,100835.97
2022-12-25T02:05:29.174Z,100855.06
2022-12-25T02:07:57.895Z,100834.28
2022-12-25T02:10:24.276Z,100840.41
2022-12-25T02:12:51.305Z,100816.16
2022-12-25T02:15:20.374Z,100820.50
2022-12-25T02:18:03.569Z,100854.19
2022-12-25T02:21:07.503Z,100851.53
2022-12-25T02:24:27.784Z,100863.72
2022-12-25T02:27:20.210Z,100810.09
2022-12-25T02:29:55.356Z,100815.22
2022-12-25T02:32:46.893Z,100862.81
2022-12-25T02:35:23.932Z,100832.59
2022-12-25T02:38:33.843Z,100858.47
2022-12-25T02:41:07.279Z,100799.75
2022-12-25T02:43:57.557Z,100811.78
2022-12-25T02:46:43.706Z,100835.06
2022-12-25T02:49:33.524Z,100788.47
2022-12-25T02:52:28.965Z,100823.84
2022-12-25T02:55:21.766Z,100834.28
2022-12-25T02:58:09.979Z,100804.81
2022-12-25T03:01:02.835Z,100831.53
2022-12-25T03:03:51.603Z,100766.94
2022-12-25T03:06:38.917Z,100823.75
2022-12-25T03:09:27.287Z,100803.03
2022-12-25T03:12:02.300Z,100783.06
2022-12-25T03:14:47.852Z,100829.78
2022-12-25T03:17:14.596Z,100826.19
2022-12-25T03:19:59.568Z,100744.25
2022-12-25T03:22:49.852Z,100805.38
2022-12-25T03:25:36.658Z,100790.56
2022-12-25T03:28:04.173Z,100786.31
2022-12-25T03:31:07.293Z,100769.00
2022-12-25T03:34:10.099Z,100790.38
2022-12-25T03:37:14.922Z,100744.72
2022-12-25T03:39:57.316Z,100780.06
2022-12-25T03:42:37.759Z,100752.16
2022-12-25T03:45:47.578Z,100745.31
2022-12-25T03:48:34.354Z,100741.88
2022-12-25T03:51:26.071Z,100766.00
2022-12-25T03:54:19.361Z,100720.25
2022-12-25T03:57:05.790Z,100776.56
2022-12-25T03:59:50.417Z,100774.00
2022-12-25T04:02:35.337Z,100777.50
2022-12-25T04:05:20.361Z,100747.31
2022-12-25T04:08:05.095Z,100744.66
2022-12-25T04:10:49.972Z,100716.06
2022-12-25T04:13:34.678Z,100727.28
2022-12-25T04:16:19.604Z,100707.50
2022-12-25T04:19:04.411Z,100742.94
2022-12-25T04:21:49.556Z,100767.94
2022-12-25T04:24:34.273Z,100774.69
2022-12-25T04:27:19.114Z,100748.81
2022-12-25T04:30:03.829Z,100733.34
2022-12-25T04:32:48.689Z,100720.31
2022-12-25T04:35:34.066Z,100728.88
2022-12-25T04:38:00.467Z,100738.47
2022-12-25T04:40:26.883Z,100728.09
2022-12-25T04:42:53.453Z,100755.59
2022-12-25T04:45:19.869Z,100728.19
2022-12-25T04:47:46.312Z,100734.19
2022-12-25T04:50:12.746Z,100654.00
2022-12-25T04:52:40.837Z,100743.88
2022-12-25T04:55:08.539Z,100761.81
2022-12-25T04:57:35.225Z,100649.59
2022-12-25T05:00:01.905Z,100730.59
2022-12-25T05:02:28.464Z,100726.34
2022-12-25T05:04:54.972Z,100717.69
2022-12-25T05:07:21.314Z,100726.34
2022-12-25T05:09:47.644Z,100715.09
2022-12-25T05:12:14.342Z,100717.63
2022-12-25T05:14:41.157Z,100719.31
2022-12-25T05:17:08.038Z,100719.44
2022-12-25T05:19:34.801Z,100725.50
2022-12-25T05:22:01.129Z,100644.41
2022-12-25T05:24:27.982Z,100697.88
2022-12-25T05:26:54.787Z,100623.88
2022-12-25T05:29:21.321Z,100707.28
2022-12-25T05:31:47.720Z,100716.13
2022-12-25T05:34:14.080Z,100700.44
2022-12-25T05:36:40.443Z,100662.53
2022-12-25T05:39:06.760Z,100698.81
2022-12-25T05:41:34.824Z,100720.47
2022-12-25T05:44:01.523Z,100706.66
2022-12-25T05:46:27.922Z,100670.28
2022-12-25T05:48:54.401Z,100696.09
2022-12-25T05:51:20.763Z,100704.56
2022-12-25T05:53:47.139Z,100593.16
2022-12-25T05:56:13.505Z,100675.78
2022-12-25T05:58:40.654Z,100676.72
2022-12-25T06:01:19.867Z,100702.69
2022-12-25T06:03:46.540Z,100703.38
2022-12-25T06:06:13.432Z,100667.16
2022-12-25T06:08:40.219Z,100633.53
2022-12-25T06:11:07.652Z,100674.88
2022-12-25T06:13:35.359Z,100698.03
2022-12-25T06:16:06.378Z,100558.41
2022-12-25T06:18:35.977Z,100683.25
2022-12-25T06:21:07.182Z,100629.69
2022-12-25T06:23:33.601Z,100630.44
2022-12-25T06:26:00.634Z,100602.78
2022-12-25T06:28:26.968Z,100611.31
2022-12-25T06:30:53.295Z,100619.84
2022-12-25T06:33:19.625Z,100532.97
2022-12-25T06:35:45.962Z,100535.53
2022-12-25T06:38:12.402Z,100644.03
2022-12-25T06:40:38.763Z,100548.53
2022-12-25T06:43:05.224Z,100654.56
2022-12-25T06:45:31.630Z,100629.47
2022-12-25T06:47:58.007Z,100632.84
2022-12-25T06:50:24.346Z,100620.00
2022-12-25T06:52:50.732Z,100621.41
2022-12-25T06:55:17.093Z,100597.16
2022-12-25T06:57:43.445Z,100613.41
2022-12-25T07:00:10.314Z,100603.03
2022-12-25T07:02:38.531Z,100537.44
2022-12-25T07:05:05.559Z,100469.22
2022-12-25T07:07:31.916Z,100582.00
2022-12-25T07:09:58.283Z,100537.22
2022-12-25T07:12:24.994Z,100566.44
2022-12-25T07:14:54.564Z,100452.03
2022-12-25T07:17:21.898Z,100568.28
2022-12-25T07:19:49.170Z,100574.34
2022-12-25T07:22:16.771Z,100569.13
2022-12-25T07:24:43.136Z,100551.84
2022-12-25T07:27:09.534Z,100530.41
2022-12-25T07:29:35.935Z,100531.97
2022-12-25T07:32:02.372Z,100543.03
2022-12-25T07:34:28.809Z,100470.63
2022-12-25T07:36:55.205Z,100536.03
2022-12-25T07:39:21.604Z,100450.00
2022-12-25T07:41:48.040Z,100489.72
2022-12-25T07:44:14.933Z,100552.47
2022-12-25T07:46:41.273Z,100531.75
2022-12-25T07:49:07.670Z,100537.00
2022-12-25T07:51:34.117Z,100546.13
2022-12-25T07:54:00.604Z,100509.31
2022-12-25T07:56:27.035Z,100566.81
2022-12-25T07:58:53.399Z,100542.72
2022-12-25T08:01:22.517Z,100555.31
2022-12-25T08:04:00.819Z,100505.41
2022-12-25T08:06:31.481Z,100527.13
2022-12-25T08:09:03.737Z,100544.47
2022-12-25T08:11:30.096Z,100546.91
2022-12-25T08:13:56.478Z,100546.84
2022-12-25T08:16:23.163Z,100547.84
2022-12-25T08:18:49.570Z,100542.25
2022-12-25T08:21:16.330Z,100478.97
2022-12-25T08:23:45.168Z,100424.69
2022-12-25T08:26:14.580Z,100540.59
2022-12-25T08:28:41.229Z,100584.06
2022-12-25T08:31:13.247Z,100558.16
2022-12-25T08:33:39.951Z,100584.16
2022-12-25T08:36:09.256Z,100619.31
2022-12-25T08:38:35.981Z,100606.34
2022-12-25T08:41:02.507Z,100613.19
2022-12-25T08:43:28.938Z,100578.47
2022-12-25T08:45:55.480Z,100484.13
2022-12-25T08:48:22.819Z,100533.81
2022-12-25T08:50:51.804Z,100594.03
2022-12-25T08:53:18.554Z,100532.03
2022-12-25T08:55:45.208Z,100563.91
2022-12-25T08:58:11.920Z,100569.88
2022-12-25T09:00:38.270Z,100558.16
2022-12-25T09:03:04.774Z,100513.53
2022-12-25T09:05:31.286Z,100523.31
2022-12-25T09:07:57.646Z,100602.63
2022-12-25T09:10:26.986Z,100528.84
2022-12-25T09:12:53.317Z,100608.00
2022-12-25T09:15:19.896Z,100635.00
2022-12-25T09:17:46.385Z,100616.22
2022-12-25T09:20:12.859Z,100614.78
2022-12-25T09:22:42.297Z,100615.66
2022-12-25T09:25:09.265Z,100619.06
2022-12-25T09:27:35.813Z,100597.31
2022-12-25T09:30:02.204Z,100568.94
2022-12-25T09:32:28.552Z,100612.91
2022-12-25T09:34:54.906Z,100586.97
2022-12-25T09:37:21.383Z,100612.78
2022-12-25T09:39:47.879Z,100478.34
2022-12-25T09:42:19.033Z,100610.88
2022-12-25T09:44:57.660Z,100569.59
2022-12-25T09:47:29.020Z,100594.53
2022-12-25T09:50:10.493Z,100576.41
2022-12-25T09:52:43.610Z,100557.22
2022-12-25T09:55:20.720Z,100564.91
2022-12-25T09:57:53.751Z,100588.97
2022-12-25T10:00:23.192Z,100581.31
2022-12-25T10:03:09.990Z,100569.25
2022-12-25T10:06:10.027Z,100578.41
2022-12-25T10:08:57.850Z,100573.16
2022-12-25T10:11:36.492Z,100564.44
2022-12-25T10:14:32.762Z,100543.81
2022-12-25T10:17:02.146Z,100571.25
2022-12-25T10:19:34.687Z,100543.44
2022-12-25T10:22:11.200Z,100535.66
2022-12-25T10:24:48.285Z,100517.59
2022-12-25T10:27:31.775Z,100517.47
2022-12-25T10:29:59.323Z,100525.19
2022-12-25T10:32:25.670Z,100558.00
2022-12-25T10:34:52.169Z,100464.38
2022-12-25T10:37:18.965Z,100512.50
2022-12-25T10:39:46.985Z,100485.91
2022-12-25T10:42:31.014Z,100541.66
2022-12-25T10:45:03.145Z,100449.41
2022-12-25T10:47:32.937Z,100444.97
2022-12-25T10:50:01.194Z,100514.31
2022-12-25T10:52:28.764Z,100481.72
2022-12-25T10:54:55.538Z,100513.28
2022-12-25T10:57:24.901Z,100508.91
2022-12-25T10:59:56.456Z,100464.09
2022-12-25T11:02:35.071Z,100487.94
2022-12-25T11:05:06.119Z,100412.03
2022-12-25T11:07:34.883Z,100444.44
2022-12-25T11:10:06.210Z,100434.75
2022-12-25T11:12:38.010Z,100361.66
2022-12-25T11:15:42.618Z,100433.63
2022-12-25T11:18:21.455Z,100378.22
2022-12-25T11:20:58.984Z,100383.47
2022-12-25T11:23:27.784Z,100388.47
2022-12-25T11:26:04.977Z,100404.56
2022-12-25T11:28:33.911Z,100394.13
2022-12-25T11:31:22.083Z,100322.97
2022-12-25T11:34:04.492Z,100405.41
2022-12-25T11:36:48.912Z,100413.69
2022-12-25T11:39:28.616Z,100411.06
2022-12-25T11:42:03.924Z,100353.50
2022-12-25T11:44:41.952Z,100407.47
2022-12-25T11:47:19.077Z,100359.91
2022-12-25T11:50:20.902Z,100355.66
2022-12-25T11:52:48.331Z,100363.47
2022-12-25T11:55:39.736Z,100365.25
2022-12-25T11:58:18.634Z,100368.59
2022-12-25T12:00:47.356Z,100384.16
2022-12-25T12:03:21.883Z,100366.59
2022-12-25T12:05:59.796Z,100363.28
2022-12-25T12:08:26.166Z,100364.84
2022-12-25T12:11:15.645Z,100362.22
2022-12-25T12:13:53.989Z,100357.81
2022-12-25T12:16:20.652Z,100340.81
2022-12-25T12:18:50.569Z,100371.81
2022-12-25T12:21:30.087Z,100264.31
2022-12-25T12:24:26.777Z,100285.81
2022-12-25T12:27:06.276Z,100347.28
2022-12-25T12:29:40.466Z,100342.13
2022-12-25T12:32:40.330Z,100320.38
2022-12-25T12:35:10.433Z,100342.72
2022-12-25T12:37:39.835Z,100250.56
2022-12-25T12:40:20.769Z,100234.06
2022-12-25T12:42:50.681Z,100240.03
2022-12-25T12:45:20.672Z,100238.22
2022-12-25T12:47:49.204Z,100328.16
2022-12-25T12:50:37.726Z,100328.03
2022-12-25T12:53:22.172Z,100330.81
2022-12-25T12:55:49.020Z,100257.81
2022-12-25T12:58:34.084Z,100337.66
2022-12-25T13:01:17.167Z,100284.19
2022-12-25T13:04:06.207Z,100314.81
2022-12-25T13:07:17.788Z,100213.22
2022-12-25T13:10:08.845Z,100311.94
2022-12-25T13:12:35.417Z,100299.53
2022-12-25T13:15:01.885Z,100286.75
2022-12-25T13:17:28.998Z,100297.63
2022-12-25T13:19:58.144Z,100299.59
2022-12-25T13:22:30.518Z,100237.97
2022-12-25T13:24:59.988Z,100276.84
2022-12-25T13:27:28.914Z,100293.69
2022-12-25T13:29:55.855Z,100237.50
2022-12-25T13:32:26.084Z,100289.78
2022-12-25T13:34:54.028Z,100231.53
2022-12-25T13:37:25.883Z,100293.72
2022-12-25T13:39:56.179Z,100281.91
2022-12-25T13:42:26.294Z,100281.84
2022-12-25T13:44:56.876Z,100257.72
2022-12-25T13:47:37.549Z,100259.44
2022-12-25T13:50:31.614Z,100273.19
2022-12-25T13:53:11.021Z,100257.38
2022-12-25T13:55:37.766Z,100246.00
2022-12-25T13:58:15.365Z,100236.25
2022-12-25T14:00:53.099Z,100246.47
2022-12-25T14:03:21.850Z,100264.53
2022-12-25T14:06:01.817Z,100264.66
2022-12-25T14:08:33.540Z,100253.88
2022-12-25T14:11:06.134Z,100257.22
2022-12-25T14:13:37.481Z,100281.31
2022-12-25T14:16:04.680Z,100212.69
2022-12-25T14:18:31.319Z,100234.97
2022-12-25T14:21:14.113Z,100202.31
2022-12-25T14:23:49.268Z,100274.06
2022-12-25T14:26:18.310Z,100267.00
2022-12-25T14:29:17.604Z,100248.34
2022-12-25T14:31:47.168Z,100215.00
2022-12-25T14:34:25.003Z,100247.53
2022-12-25T14:36:53.323Z,100244.84
2022-12-25T14:39:38.221Z,100231.28
2022-12-25T14:42:19.238Z,100182.56
2022-12-25T14:44:59.474Z,100193.66
2022-12-25T14:47:26.158Z,100237.88
2022-12-25T14:49:54.496Z,100213.84
2022-12-25T14:52:33.953Z,100243.03
2022-12-25T14:55:03.690Z,100244.84
2022-12-25T14:57:37.786Z,100237.00
2022-12-25T15:00:24.558Z,100238.59
2022-12-25T15:02:54.153Z,100185.22
2022-12-25T15:05:29.670Z,100223.78
2022-12-25T15:08:01.740Z,100200.50
2022-12-25T15:10:58.845Z,100179.06
2022-12-25T15:13:17.792Z,100196.16
2022-12-25T15:16:10.184Z,100177.28
2022-12-25T15:18:40.106Z,100172.13
2022-12-25T15:21:09.477Z,100178.81
2022-12-25T15:23:35.907Z,100183.78
2022-12-25T15:26:02.275Z,100123.78
2022-12-25T15:28:28.606Z,100159.94
2022-12-25T15:30:55.033Z,100165.00
2022-12-25T15:33:21.456Z,100186.41
2022-12-25T15:35:48.779Z,100097.16
2022-12-25T15:38:15.179Z,100175.03
2022-12-25T15:40:42.507Z,100192.13
2022-12-25T15:43:38.812Z,100174.94
2022-12-25T15:45:59.369Z,100108.91
2022-12-25T15:48:25.931Z,100113.00
2022-12-25T15:50:52.246Z,100187.69
2022-12-25T15:53:18.651Z,100144.72
2022-12-25T15:55:44.998Z,100147.13
2022-12-25T15:58:13.037Z,100155.47
2022-12-25T16:00:39.551Z,100186.00
2022-12-25T16:03:06.143Z,100148.63
2022-12-25T16:05:32.619Z,100186.03
2022-12-25T16:07:59.074Z,100192.16
2022-12-25T16:10:25.506Z,100186.22
2022-12-25T16:12:51.846Z,100167.16
2022-12-25T16:15:18.191Z,100137.38
2022-12-25T16:17:44.678Z,100172.28
2022-12-25T16:20:11.395Z,100187.91
2022-12-25T16:22:40.650Z,100112.63
2022-12-25T16:25:13.235Z,100188.66
2022-12-25T16:27:39.650Z,100182.78
2022-12-25T16:30:06.795Z,100198.41
2022-12-25T16:32:33.300Z,100106.19
2022-12-25T16:34:59.661Z,100123.28
2022-12-25T16:37:27.135Z,100200.41
2022-12-25T16:39:53.612Z,100189.41
2022-12-25T16:42:20.057Z,100192.44
2022-12-25T16:44:46.411Z,100120.75
2022-12-25T16:47:12.881Z,100205.47
2022-12-25T16:49:39.257Z,100111.09
2022-12-25T16:52:05.655Z,100143.59
2022-12-25T16:54:31.976Z,100075.88
2022-12-25T16:56:58.297Z,100190.75
2022-12-25T16:59:24.788Z,100170.25
2022-12-25T17:01:51.212Z,100187.22
2022-12-25T17:04:17.661Z,100182.78
2022-12-25T17:06:44.077Z,100182.06
2022-12-25T17:09:10.586Z,100174.91
2022-12-25T17:11:37.205Z,100192.75
2022-12-25T17:14:04.477Z,100127.78
2022-12-25T17:16:35.976Z,100217.69
2022-12-25T17:19:09.552Z,100199.47
2022-12-25T17:21:38.021Z,100202.59
2022-12-25T17:24:05.191Z,100190.50
2022-12-25T17:26:32.728Z,100190.31
2022-12-25T17:28:59.464Z,100207.25
2022-12-25T17:31:26.062Z,100114.97
2022-12-25T17:33:52.450Z,100161.63
2022-12-25T17:36:20.916Z,100172.88
2022-12-25T17:38:48.836Z,100206.09
2022-12-25T17:41:17.190Z,100154.50
2022-12-25T17:43:45.559Z,100210.41
2022-12-25T17:46:14.172Z,100215.44
2022-12-25T17:48:40.628Z,100135.56
2022-12-25T17:51:12.967Z,100196.84
2022-12-25T17:53:41.574Z,100149.13
2022-12-25T17:56:09.722Z,100195.47
2022-12-25T17:58:37.630Z,100216.16
2022-12-25T18:01:14.050Z,100160.50
2022-12-25T18:03:46.248Z,100216.13
2022-12-25T18:06:15.602Z,100205.94
2022-12-25T18:08:43.067Z,100219.09
2022-12-25T18:11:15.004Z,100204.25
2022-12-25T18:13:44.613Z,100178.59
2022-12-25T18:16:12.678Z,100192.66
2022-12-25T18:18:39.692Z,100183.25
2022-12-25T18:21:06.609Z,100187.94
2022-12-25T18:23:33.840Z,100136.66
2022-12-25T18:26:06.013Z,100193.53
2022-12-25T18:28:33.059Z,100109.31
2022-12-25T18:30:59.487Z,100174.56
2022-12-25T18:33:25.906Z,100181.47
2022-12-25T18:35:58.130Z,100197.16
2022-12-25T18:38:24.816Z,100160.88
2022-12-25T18:40:51.307Z,100183.75
2022-12-25T18:43:17.759Z,100188.97
2022-12-25T18:45:44.394Z,100202.44
2022-12-25T18:48:10.865Z,100200.19
2022-12-25T18:50:39.340Z,100216.00
2022-12-25T18:53:08.000Z,100201.22
2022-12-25T18:55:34.399Z,100157.72
2022-12-25T18:58:01.083Z,100171.78
2022-12-25T19:00:27.960Z,100146.44
2022-12-25T19:02:58.891Z,100226.53
2022-12-25T19:05:25.794Z,100207.28
2022-12-25T19:07:52.295Z,100210.97
2022-12-25T19:10:18.708Z,100238.53
2022-12-25T19:12:45.142Z,100234.09
2022-12-25T19:15:11.665Z,100211.28
2022-12-25T19:17:38.129Z,100249.75
2022-12-25T19:20:06.061Z,100183.34
2022-12-25T19:22:32.485Z,100242.50
2022-12-25T19:24:58.902Z,100223.19
2022-12-25T19:27:25.417Z,100253.63
2022-12-25T19:29:51.798Z,100216.56
2022-12-25T19:32:18.113Z,100256.84
2022-12-25T19:34:44.591Z,100248.00
2022-12-25T19:37:11.022Z,100183.66
2022-12-25T19:39:37.517Z,100216.84
2022-12-25T19:42:03.994Z,100219.00
2022-12-25T19:44:30.328Z,100148.22
2022-12-25T19:46:56.751Z,100205.25
2022-12-25T19:49:23.292Z,100186.88
2022-12-25T19:51:49.783Z,100221.09
2022-12-25T19:54:18.713Z,100231.91
2022-12-25T19:56:46.353Z,100219.84
2022-12-25T19:59:14.415Z,100192.53
2022-12-25T20:01:47.451Z,100229.69
2022-12-25T20:04:14.830Z,100248.91
2022-12-25T20:06:42.561Z,100218.66
2022-12-25T20:09:12.635Z,100202.66
2022-12-25T20:11:39.603Z,100237.84
2022-12-25T20:14:07.891Z,100231.22
2022-12-25T20:16:37.431Z,100211.38
2022-12-25T20:19:04.087Z,100183.66
2022-12-25T20:21:30.614Z,100203.34
2022-12-25T20:23:57.483Z,100220.59
2022-12-25T20:26:27.689Z,100216.75
2022-12-25T20:28:54.312Z,100230.03
2022-12-25T20:31:23.931Z,100231.84
2022-12-25T20:33:50.368Z,100142.41
2022-12-25T20:36:18.354Z,100225.34
2022-12-25T20:38:44.774Z,100228.41
2022-12-25T20:41:30.578Z,100228.31
2022-12-25T20:43:57.553Z,100228.31
2022-12-25T20:46:24.840Z,100193.28
2022-12-25T20:48:52.632Z,100212.91
2022-12-25T20:51:21.751Z,100202.28
2022-12-25T20:53:48.460Z,100213.53
2022-12-25T20:56:20.868Z,100193.50
2022-12-25T20:58:47.473Z,100233.41
2022-12-25T21:01:16.997Z,100220.69
2022-12-25T21:03:44.091Z,100146.53
2022-12-25T21:06:11.222Z,100151.78
2022-12-25T21:08:38.637Z,100231.19
2022-12-25T21:11:05.548Z,100232.56
2022-12-25T21:13:37.955Z,100220.75
2022-12-25T21:16:06.361Z,100258.69
2022-12-25T21:18:33.151Z,100256.47
2022-12-25T21:21:05.647Z,100260.56
2022-12-25T21:23:32.562Z,100286.72
2022-12-25T21:25:58.926Z,100275.66
2022-12-25T21:28:30.044Z,100266.03
2022-12-25T21:31:04.993Z,100284.34
2022-12-25T21:33:50.147Z,100232.69
2022-12-25T21:36:17.335Z,100269.13
2022-12-25T21:38:45.395Z,100276.22
2022-12-25T21:41:13.845Z,100297.00
2022-12-25T21:43:40.657Z,100288.75
2022-12-25T21:46:09.375Z,100315.91
2022-12-25T21:48:37.113Z,100297.53
2022-12-25T21:51:25.108Z,100296.94
2022-12-25T21:53:51.738Z,100292.03
2022-12-25T21:56:18.419Z,100295.69
2022-12-25T21:58:46.537Z,100291.59
2022-12-25T22:01:16.705Z,100324.31
2022-12-25T22:03:44.177Z,100304.91
2022-12-25T22:06:29.569Z,100258.44
2022-12-25T22:08:56.906Z,100301.38
2022-12-25T22:11:45.496Z,100258.94
2022-12-25T22:14:51.144Z,100217.38
2022-12-25T22:17:42.396Z,100333.78
2022-12-25T22:20:11.628Z,100341.03
2022-12-25T22:22:38.007Z,100315.94
2022-12-25T22:25:11.670Z,100343.06
2022-12-25T22:27:39.816Z,100291.16
2022-12-25T22:30:15.166Z,100327.75
2022-12-25T22:32:42.091Z,100338.53
2022-12-25T22:35:09.268Z,100265.19
2022-12-25T22:37:36.022Z,100311.94
2022-12-25T22:40:03.938Z,100299.00
2022-12-25T22:42:30.552Z,100331.69
2022-12-25T22:44:56.985Z,100304.34
2022-12-25T22:47:23.652Z,100309.22
2022-12-25T22:49:49.979Z,100320.72
2022-12-25T22:52:16.527Z,100334.31
2022-12-25T22:54:42.869Z,100329.03
2022-12-25T22:57:09.176Z,100313.56
2022-12-25T22:59:35.613Z,100298.81
2022-12-25T23:02:02.157Z,100316.03
2022-12-25T23:04:29.265Z,100324.50
2022-12-25T23:06:56.199Z,100299.28
2022-12-25T23:09:27.545Z,100250.00
2022-12-25T23:11:58.411Z,100335.31
2022-12-25T23:14:41.773Z,100360.16
2022-12-25T23:17:31.801Z,100354.28
2022-12-25T23:20:18.259Z,100326.59
2022-12-25T23:23:03.906Z,100345.31
2022-12-25T23:25:49.143Z,100326.84
2022-12-25T23:28:35.470Z,100321.19
2022-12-25T23:31:02.021Z,100322.44
2022-12-25T23:33:28.572Z,100292.00
2022-12-25T23:35:55.004Z,100321.69
2022-12-25T23:38:21.424Z,100259.16
2022-12-25T23:40:47.766Z,100321.28
2022-12-25T23:43:14.301Z,100252.06
2022-12-25T23:45:40.680Z,100247.84
2022-12-25T23:48:07.034Z,100257.53
2022-12-25T23:50:33.892Z,100291.06
2022-12-25T23:53:00.716Z,100317.00
2022-12-25T23:55:27.179Z,100311.03
2022-12-25T23:57:53.505Z,100314.31
